createdAt,value
2022-11-16T00:00:44.508Z,100.00
2022-11-16T00:03:48.513Z,100.00
2022-11-16T00:06:51.195Z,100.00
2022-11-16T00:09:54.121Z,100.00
2022-11-16T00:12:56.621Z,100.00
2022-11-16T00:16:00.082Z,100.00
2022-11-16T00:19:05.141Z,100.00
2022-11-16T00:22:08.043Z,100.00
2022-11-16T00:25:10.595Z,100.00
2022-11-16T00:28:13.492Z,100.00
2022-11-16T00:31:16.046Z,100.00
2022-11-16T00:34:19.851Z,100.00
2022-11-16T00:37:22.407Z,100.00
2022-11-16T00:40:25.358Z,100.00
2022-11-16T00:43:28.561Z,100.00
2022-11-16T00:46:31.621Z,100.00
2022-11-16T00:49:34.375Z,100.00
2022-11-16T00:52:37.219Z,100.00
2022-11-16T00:55:40.875Z,100.00
2022-11-16T00:58:44.516Z,100.00
2022-11-16T01:01:47.443Z,100.00
2022-11-16T01:04:50.479Z,100.00
2022-11-16T01:07:53.528Z,100.00
2022-11-16T01:11:16.405Z,100.00
2022-11-16T01:14:19.034Z,100.00
2022-11-16T01:17:21.890Z,100.00
2022-11-16T01:20:29.107Z,100.00
2022-11-16T01:23:32.158Z,100.00
2022-11-16T01:26:34.679Z,100.00
2022-11-16T01:29:37.474Z,100.00
2022-11-16T01:32:40.340Z,100.00
2022-11-16T01:35:44.084Z,100.00
2022-11-16T01:38:48.222Z,100.00
2022-11-16T01:41:53.188Z,100.00
2022-11-16T01:45:07.326Z,100.00
2022-11-16T01:48:17.768Z,100.00
2022-11-16T01:51:21.997Z,100.00
2022-11-16T01:54:25.895Z,100.00
2022-11-16T01:57:35.666Z,100.00
2022-11-16T02:00:39.396Z,100.00
2022-11-16T02:03:45.002Z,100.00
2022-11-16T02:07:08.831Z,100.00
2022-11-16T02:10:41.379Z,100.00
2022-11-16T02:13:58.593Z,100.00
2022-11-16T02:17:27.709Z,100.00
2022-11-16T02:20:42.500Z,100.00
2022-11-16T02:23:54.494Z,100.00
2022-11-16T02:27:40.131Z,100.00
2022-11-16T02:30:53.598Z,100.00
2022-11-16T02:33:57.532Z,100.00
2022-11-16T02:37:03.117Z,100.00
2022-11-16T02:40:11.140Z,100.00
2022-11-16T02:43:21.918Z,100.00
2022-11-16T02:46:31.722Z,100.00
2022-11-16T02:49:40.456Z,100.00
2022-11-16T02:52:43.024Z,100.00
2022-11-16T02:55:46.243Z,100.00
2022-11-16T02:58:49.010Z,100.00
2022-11-16T03:02:01.993Z,100.00
2022-11-16T03:05:17.119Z,100.00
2022-11-16T03:08:31.329Z,100.00
2022-11-16T03:11:56.498Z,100.00
2022-11-16T03:15:10.094Z,100.00
2022-11-16T03:18:15.712Z,100.00
2022-11-16T03:21:30.621Z,100.00
2022-11-16T03:24:33.360Z,100.00
2022-11-16T03:27:42.758Z,100.00
2022-11-16T03:31:21.927Z,100.00
2022-11-16T03:34:30.317Z,100.00
2022-11-16T03:37:34.536Z,100.00
2022-11-16T03:40:39.293Z,100.00
2022-11-16T03:43:44.543Z,100.00
2022-11-16T03:46:48.611Z,100.00
2022-11-16T03:49:51.384Z,100.00
2022-11-16T03:52:54.754Z,100.00
2022-11-16T03:55:57.779Z,100.00
2022-11-16T03:59:03.043Z,100.00
2022-11-16T04:02:05.671Z,100.00
2022-11-16T04:05:28.602Z,100.00
2022-11-16T04:08:50.017Z,100.00
2022-11-16T04:12:31.656Z,100.00
2022-11-16T04:15:52.958Z,100.00
2022-11-16T04:19:14.765Z,100.00
2022-11-16T04:22:41.094Z,100.00
2022-11-16T04:25:46.335Z,100.00
2022-11-16T04:28:50.163Z,100.00
2022-11-16T04:32:11.593Z,100.00
2022-11-16T04:35:46.854Z,100.00
2022-11-16T04:38:50.155Z,100.00
2022-11-16T04:42:12.431Z,100.00
2022-11-16T04:45:34.093Z,100.00
2022-11-16T04:48:37.011Z,100.00
2022-11-16T04:51:40.096Z,100.00
2022-11-16T04:54:42.832Z,100.00
2022-11-16T04:57:45.999Z,100.00
2022-11-16T05:00:48.850Z,100.00
2022-11-16T05:03:51.838Z,100.00
2022-11-16T05:06:54.731Z,100.00
2022-11-16T05:09:58.244Z,100.00
2022-11-16T05:13:01.750Z,100.00
2022-11-16T05:16:05.021Z,100.00
2022-11-16T05:19:26.535Z,100.00
2022-11-16T05:22:29.862Z,100.00
2022-11-16T05:25:36.706Z,100.00
2022-11-16T05:28:40.477Z,100.00
2022-11-16T05:31:44.602Z,100.00
2022-11-16T05:34:48.407Z,100.00
2022-11-16T05:37:51.929Z,100.00
2022-11-16T05:40:55.037Z,100.00
2022-11-16T05:43:58.376Z,100.00
2022-11-16T05:47:02.193Z,100.00
2022-11-16T05:50:05.170Z,100.00
2022-11-16T05:53:08.666Z,100.00
2022-11-16T05:56:14.277Z,100.00
2022-11-16T05:59:19.942Z,100.00
2022-11-16T06:02:23.628Z,100.00
2022-11-16T06:05:27.049Z,100.00
2022-11-16T06:08:30.597Z,100.00
2022-11-16T06:11:35.945Z,100.00
2022-11-16T06:14:39.528Z,100.00
2022-11-16T06:17:43.451Z,100.00
2022-11-16T06:20:47.896Z,100.00
2022-11-16T06:23:50.868Z,100.00
2022-11-16T06:26:53.702Z,100.00
2022-11-16T06:29:57.635Z,100.00
2022-11-16T06:33:00.357Z,100.00
2022-11-16T06:36:03.454Z,100.00
2022-11-16T06:39:06.766Z,100.00
2022-11-16T06:42:10.266Z,100.00
2022-11-16T06:45:14.154Z,100.00
2022-11-16T06:48:18.608Z,100.00
2022-11-16T06:51:21.510Z,100.00
2022-11-16T06:54:24.409Z,100.00
2022-11-16T06:57:27.756Z,100.00
2022-11-16T07:00:30.877Z,100.00
2022-11-16T07:03:34.953Z,100.00
2022-11-16T07:06:39.317Z,100.00
2022-11-16T07:09:44.577Z,100.00
2022-11-16T07:12:47.758Z,100.00
2022-11-16T07:15:50.915Z,100.00
2022-11-16T07:18:59.259Z,100.00
2022-11-16T07:22:04.376Z,100.00
2022-11-16T07:25:08.256Z,100.00
2022-11-16T07:28:10.971Z,100.00
2022-11-16T07:31:15.426Z,100.00
2022-11-16T07:34:18.765Z,100.00
2022-11-16T07:37:22.080Z,100.00
2022-11-16T07:40:24.876Z,100.00
2022-11-16T07:43:32.723Z,100.00
2022-11-16T07:46:46.406Z,100.00
2022-11-16T07:49:50.383Z,100.00
2022-11-16T07:52:55.590Z,100.00
2022-11-16T07:55:58.590Z,100.00
2022-11-16T07:59:01.732Z,100.00
2022-11-16T08:02:05.924Z,100.00
2022-11-16T08:05:09.162Z,100.00
2022-11-16T08:08:13.651Z,100.00
2022-11-16T08:11:16.942Z,100.00
2022-11-16T08:14:20.213Z,100.00
2022-11-16T08:17:23.643Z,100.00
2022-11-16T08:20:28.683Z,100.00
2022-11-16T08:23:33.082Z,100.00
2022-11-16T08:26:35.637Z,100.00
2022-11-16T08:29:39.103Z,100.00
2022-11-16T08:32:42.505Z,100.00
2022-11-16T08:35:45.785Z,100.00
2022-11-16T08:38:52.982Z,100.00
2022-11-16T08:41:56.589Z,100.00
2022-11-16T08:44:59.473Z,100.00
2022-11-16T08:48:04.440Z,100.00
2022-11-16T08:51:19.492Z,100.00
2022-11-16T08:54:23.803Z,100.00
2022-11-16T08:57:26.578Z,100.00
2022-11-16T09:00:30.504Z,100.00
2022-11-16T09:03:33.169Z,100.00
2022-11-16T09:06:36.872Z,100.00
2022-11-16T09:09:39.498Z,100.00
2022-11-16T09:12:42.866Z,100.00
2022-11-16T09:15:45.572Z,100.00
2022-11-16T09:18:51.947Z,100.00
2022-11-16T09:21:54.756Z,100.00
2022-11-16T09:24:57.601Z,100.00
2022-11-16T09:28:00.185Z,99.96
2022-11-16T09:31:06.042Z,100.00
2022-11-16T09:34:08.954Z,100.00
2022-11-16T09:37:11.792Z,99.86
2022-11-16T09:40:14.482Z,100.00
2022-11-16T09:43:32.675Z,100.00
2022-11-16T09:46:48.927Z,100.00
2022-11-16T09:50:02.892Z,99.25
2022-11-16T09:53:18.321Z,99.95
2022-11-16T09:56:29.285Z,99.60
2022-11-16T09:59:49.815Z,99.97
2022-11-16T10:03:13.482Z,100.00
2022-11-16T10:06:28.954Z,100.00
2022-11-16T10:09:32.058Z,99.90
2022-11-16T10:12:59.778Z,99.60
2022-11-16T10:16:13.764Z,100.00
2022-11-16T10:19:31.660Z,100.00
2022-11-16T10:22:50.431Z,100.00
2022-11-16T10:25:59.062Z,99.86
2022-11-16T10:29:33.602Z,100.00
2022-11-16T10:32:47.781Z,99.13
2022-11-16T10:35:54.045Z,99.16
2022-11-16T10:38:59.462Z,99.49
2022-11-16T10:42:07.607Z,99.18
2022-11-16T10:45:11.529Z,98.94
2022-11-16T10:48:32.456Z,98.83
2022-11-16T10:51:35.505Z,98.77
2022-11-16T10:54:42.956Z,98.67
2022-11-16T10:57:56.125Z,98.25
2022-11-16T11:00:59.270Z,98.83
2022-11-16T11:04:15.644Z,99.10
2022-11-16T11:07:31.689Z,98.32
2022-11-16T11:10:37.516Z,97.76
2022-11-16T11:13:40.209Z,97.87
2022-11-16T11:16:43.063Z,98.47
2022-11-16T11:19:45.681Z,98.82
2022-11-16T11:23:00.669Z,98.21
2022-11-16T11:26:03.461Z,98.24
2022-11-16T11:29:35.233Z,98.96
2022-11-16T11:32:40.585Z,97.82
2022-11-16T11:35:43.610Z,97.76
2022-11-16T11:39:03.456Z,97.67
2022-11-16T11:42:20.777Z,99.00
2022-11-16T11:45:44.045Z,98.71
2022-11-16T11:48:58.044Z,99.81
2022-11-16T11:52:10.713Z,100.00
2022-11-16T11:55:16.921Z,100.00
2022-11-16T11:58:20.307Z,100.00
2022-11-16T12:02:02.375Z,100.00
2022-11-16T12:05:11.738Z,100.00
2022-11-16T12:08:52.008Z,100.00
2022-11-16T12:12:14.968Z,100.00
2022-11-16T12:15:53.222Z,100.00
2022-11-16T12:19:08.595Z,100.00
2022-11-16T12:22:33.941Z,100.00
2022-11-16T12:25:45.598Z,100.00
2022-11-16T12:28:51.057Z,100.00
2022-11-16T12:32:25.407Z,100.00
2022-11-16T12:35:45.332Z,100.00
2022-11-16T12:39:12.805Z,100.00
2022-11-16T12:42:27.205Z,100.00
2022-11-16T12:45:54.663Z,100.00
2022-11-16T12:49:34.641Z,100.00
2022-11-16T12:53:04.097Z,100.00
2022-11-16T12:56:06.571Z,100.00
2022-11-16T12:59:15.315Z,100.00
2022-11-16T13:02:23.676Z,100.00
2022-11-16T13:05:36.665Z,100.00
2022-11-16T13:09:11.814Z,100.00
2022-11-16T13:12:21.481Z,100.00
2022-11-16T13:15:33.731Z,100.00
2022-11-16T13:18:42.943Z,100.00
2022-11-16T13:21:59.865Z,100.00
2022-11-16T13:25:21.008Z,100.00
2022-11-16T13:28:41.171Z,100.00
2022-11-16T13:31:55.523Z,100.00
2022-11-16T13:35:00.249Z,100.00
2022-11-16T13:38:03.135Z,100.00
2022-11-16T13:41:31.079Z,100.00
2022-11-16T13:44:34.907Z,100.00
2022-11-16T13:47:37.702Z,100.00
2022-11-16T13:50:49.343Z,100.00
2022-11-16T13:57:34.590Z,100.00
2022-11-16T14:00:40.405Z,100.00
2022-11-16T14:03:49.011Z,100.00
2022-11-16T14:06:51.483Z,100.00
2022-11-16T14:09:54.338Z,100.00
2022-11-16T14:12:57.534Z,100.00
2022-11-16T14:16:49.099Z,100.00
2022-11-16T14:19:55.196Z,100.00
2022-11-16T14:23:16.432Z,100.00
2022-11-16T14:26:37.394Z,100.00
2022-11-16T14:29:58.811Z,100.00
2022-11-16T14:33:01.757Z,100.00
2022-11-16T14:36:07.695Z,100.00
2022-11-16T14:39:31.136Z,100.00
2022-11-16T14:43:09.570Z,100.00
2022-11-16T14:46:15.851Z,100.00
2022-11-16T14:49:20.453Z,100.00
2022-11-16T14:52:39.092Z,100.00
2022-11-16T14:55:44.966Z,100.00
2022-11-16T14:59:06.057Z,100.00
2022-11-16T15:02:23.140Z,100.00
2022-11-16T15:05:33.539Z,100.00
2022-11-16T15:08:45.413Z,100.00
2022-11-16T15:12:08.896Z,100.00
2022-11-16T15:15:11.686Z,100.00
2022-11-16T15:18:18.556Z,100.00
2022-11-16T15:21:23.045Z,100.00
2022-11-16T15:24:31.757Z,100.00
2022-11-16T15:27:41.037Z,100.00
2022-11-16T15:30:48.666Z,100.00
2022-11-16T15:33:52.228Z,100.00
2022-11-16T15:36:54.778Z,100.00
2022-11-16T15:40:00.021Z,100.00
2022-11-16T15:43:05.070Z,100.00
2022-11-16T15:46:08.896Z,100.00
2022-11-16T15:49:36.331Z,100.00
2022-11-16T15:52:46.141Z,100.00
2022-11-16T15:55:50.212Z,100.00
2022-11-16T15:58:55.062Z,100.00
2022-11-16T16:01:58.055Z,100.00
2022-11-16T16:05:00.816Z,100.00
2022-11-16T16:08:04.134Z,100.00
2022-11-16T16:11:27.660Z,100.00
2022-11-16T16:14:31.118Z,100.00
2022-11-16T16:17:34.390Z,100.00
2022-11-16T16:20:37.917Z,100.00
2022-11-16T16:23:48.524Z,100.00
2022-11-16T16:26:51.110Z,100.00
2022-11-16T16:29:56.646Z,100.00
2022-11-16T16:32:59.459Z,100.00
2022-11-16T16:36:02.480Z,100.00
2022-11-16T16:39:05.132Z,100.00
2022-11-16T16:42:11.743Z,100.00
2022-11-16T16:45:20.862Z,100.00
2022-11-16T16:48:23.693Z,100.00
2022-11-16T16:51:26.347Z,100.00
2022-11-16T16:54:29.641Z,100.00
2022-11-16T16:57:32.223Z,100.00
2022-11-16T17:00:35.488Z,100.00
2022-11-16T17:03:38.066Z,100.00
2022-11-16T17:06:46.180Z,100.00
2022-11-16T17:09:49.096Z,100.00
2022-11-16T17:12:55.813Z,100.00
2022-11-16T17:15:59.060Z,100.00
2022-11-16T17:19:03.722Z,100.00
2022-11-16T17:22:06.483Z,100.00
2022-11-16T17:25:10.672Z,100.00
2022-11-16T17:28:13.378Z,100.00
2022-11-16T17:31:17.500Z,100.00
2022-11-16T17:34:20.039Z,100.00
2022-11-16T17:37:22.871Z,100.00
2022-11-16T17:40:25.543Z,100.00
2022-11-16T17:43:28.638Z,100.00
2022-11-16T17:46:31.229Z,100.00
2022-11-16T17:49:34.052Z,100.00
2022-11-16T17:52:36.901Z,100.00
2022-11-16T17:55:40.523Z,100.00
2022-11-16T17:58:45.079Z,100.00
2022-11-16T18:01:49.443Z,100.00
2022-11-16T18:04:52.645Z,100.00
2022-11-16T18:07:55.463Z,100.00
2022-11-16T18:11:06.686Z,100.00
2022-11-16T18:14:10.596Z,100.00
2022-11-16T18:17:13.676Z,100.00
2022-11-16T18:20:17.635Z,100.00
2022-11-16T18:23:20.655Z,100.00
2022-11-16T18:26:24.152Z,100.00
2022-11-16T18:29:27.584Z,100.00
2022-11-16T18:32:30.701Z,100.00
2022-11-16T18:35:33.830Z,100.00
2022-11-16T18:38:37.500Z,100.00
2022-11-16T18:41:50.124Z,100.00
2022-11-16T18:44:56.304Z,100.00
2022-11-16T18:47:59.362Z,100.00
2022-11-16T18:51:04.376Z,100.00
2022-11-16T18:54:08.608Z,100.00
2022-11-16T18:57:11.378Z,100.00
2022-11-16T19:00:15.780Z,100.00
2022-11-16T19:03:18.404Z,100.00
2022-11-16T19:06:22.549Z,100.00
2022-11-16T19:09:26.336Z,100.00
2022-11-16T19:12:29.930Z,100.00
2022-11-16T19:15:34.474Z,100.00
2022-11-16T19:18:39.717Z,100.00
2022-11-16T19:21:42.706Z,100.00
2022-11-16T19:24:46.134Z,100.00
2022-11-16T19:27:48.884Z,100.00
2022-11-16T19:30:52.101Z,100.00
2022-11-16T19:33:57.346Z,100.00
2022-11-16T19:37:00.569Z,100.00
2022-11-16T19:40:04.093Z,100.00
2022-11-16T19:43:07.163Z,100.00
2022-11-16T19:46:23.231Z,100.00
2022-11-16T19:49:26.502Z,100.00
2022-11-16T19:52:29.434Z,100.00
2022-11-16T19:55:34.756Z,100.00
2022-11-16T19:58:38.647Z,100.00
2022-11-16T20:01:41.909Z,100.00
2022-11-16T20:04:45.009Z,100.00
2022-11-16T20:07:48.826Z,100.00
2022-11-16T20:10:51.903Z,100.00
2022-11-16T20:13:57.837Z,100.00
2022-11-16T20:17:01.003Z,100.00
2022-11-16T20:20:04.609Z,100.00
2022-11-16T20:23:07.702Z,100.00
2022-11-16T20:26:12.385Z,100.00
2022-11-16T20:29:18.505Z,100.00
2022-11-16T20:32:21.758Z,100.00
2022-11-16T20:35:24.623Z,100.00
2022-11-16T20:38:27.275Z,100.00
2022-11-16T20:41:32.221Z,100.00
2022-11-16T20:44:35.083Z,100.00
2022-11-16T20:47:38.031Z,100.00
2022-11-16T20:50:40.947Z,100.00
2022-11-16T20:53:46.408Z,100.00
2022-11-16T20:56:50.495Z,100.00
2022-11-16T20:59:53.562Z,100.00
2022-11-16T21:02:56.415Z,100.00
2022-11-16T21:06:00.363Z,100.00
2022-11-16T21:09:04.725Z,100.00
2022-11-16T21:12:27.995Z,100.00
2022-11-16T21:15:30.978Z,100.00
2022-11-16T21:18:34.629Z,100.00
2022-11-16T21:21:38.559Z,100.00
2022-11-16T21:24:41.468Z,100.00
2022-11-16T21:27:44.195Z,100.00
2022-11-16T21:31:17.805Z,100.00
2022-11-16T21:34:20.919Z,100.00
2022-11-16T21:37:23.937Z,100.00
2022-11-16T21:40:26.518Z,100.00
2022-11-16T21:43:29.338Z,100.00
2022-11-16T21:46:31.841Z,100.00
2022-11-16T21:49:39.652Z,100.00
2022-11-16T21:52:50.183Z,100.00
2022-11-16T21:55:53.043Z,100.00
2022-11-16T21:58:55.688Z,100.00
2022-11-16T22:02:01.358Z,100.00
2022-11-16T22:05:22.907Z,100.00
2022-11-16T22:08:25.599Z,100.00
2022-11-16T22:11:28.723Z,100.00
2022-11-16T22:14:31.255Z,100.00
2022-11-16T22:17:34.171Z,100.00
2022-11-16T22:20:36.725Z,100.00
2022-11-16T22:23:40.051Z,100.00
2022-11-16T22:26:43.037Z,100.00
2022-11-16T22:29:45.910Z,100.00
2022-11-16T22:32:48.434Z,100.00
2022-11-16T22:35:51.272Z,100.00
2022-11-16T22:38:57.088Z,100.00
2022-11-16T22:42:00.127Z,100.00
2022-11-16T22:45:02.737Z,100.00
2022-11-16T22:48:06.017Z,100.00
2022-11-16T22:51:27.937Z,100.00
2022-11-16T22:54:30.990Z,100.00
2022-11-16T22:57:33.506Z,100.00
2022-11-16T23:00:41.823Z,100.00
2022-11-16T23:03:46.069Z,100.00
2022-11-16T23:06:49.639Z,100.00
2022-11-16T23:09:52.209Z,100.00
2022-11-16T23:13:13.597Z,100.00
2022-11-16T23:16:16.149Z,100.00
2022-11-16T23:19:39.938Z,100.00
2022-11-16T23:23:00.954Z,100.00
2022-11-16T23:26:29.426Z,100.00
2022-11-16T23:29:32.165Z,100.00
2022-11-16T23:32:42.318Z,100.00
2022-11-16T23:35:44.908Z,100.00
2022-11-16T23:38:47.769Z,100.00
2022-11-16T23:42:08.687Z,100.00
2022-11-16T23:45:11.664Z,100.00
2022-11-16T23:48:16.002Z,100.00
2022-11-16T23:51:19.630Z,100.00
2022-11-16T23:54:22.171Z,100.00
2022-11-16T23:57:25.062Z,100.00
